createdAt,value
2018-04-01T11:20:48.573Z,16.63
2018-04-01T11:23:22.769Z,18.80
2018-04-01T11:25:56.040Z,16.70
2018-04-01T11:28:29.278Z,14.53
2018-04-01T11:31:02.573Z,20.07
2018-04-01T11:33:36.029Z,11.80
2018-04-01T11:36:09.336Z,12.27
2018-04-01T11:38:42.425Z,12.97
2018-04-01T11:41:15.751Z,13.87
2018-04-01T11:44:28.736Z,57.30
2018-04-01T11:50:36.289Z,82.13
2018-04-01T11:56:02.344Z,78.47
2018-04-01T11:58:37.374Z,77.50
2018-04-01T12:31:14.955Z,102.43
2018-04-01T12:33:48.874Z,104.77
2018-04-01T12:36:22.766Z,103.93
2018-04-01T12:38:56.367Z,108.23
2018-04-01T12:41:29.777Z,106.07
2018-04-01T12:44:03.811Z,117.27
2018-04-01T12:46:46.655Z,119.63
2018-04-01T12:49:20.116Z,33.42
2018-04-01T12:51:54.009Z,27.50
2018-04-01T12:54:27.362Z,30.70
2018-04-01T12:57:01.536Z,26.10
2018-04-01T12:59:35.545Z,26.07
2018-04-01T13:02:08.842Z,25.50
2018-04-01T13:04:42.137Z,24.63
2018-04-01T13:07:15.485Z,25.60
2018-04-01T13:09:48.754Z,24.13
2018-04-01T13:12:21.897Z,23.90
2018-04-01T13:14:55.276Z,25.93
2018-04-01T13:17:29.513Z,74.97
2018-04-01T13:22:54.858Z,103.30
2018-04-01T13:25:28.153Z,36.30
2018-04-01T13:28:01.445Z,24.70
2018-04-01T13:30:34.970Z,24.60
2018-04-01T18:47:16.851Z,9.50
2018-04-01T18:49:50.184Z,9.60
2018-04-01T18:52:23.266Z,9.63
2018-04-01T18:54:56.541Z,8.90
2018-04-01T18:57:30.435Z,10.40
2018-04-01T19:00:03.608Z,11.17
2018-04-01T19:02:37.539Z,8.10
2018-04-01T19:05:10.799Z,10.37
2018-04-01T19:07:44.151Z,8.67
2018-04-01T19:10:17.378Z,8.20
2018-04-01T19:12:51.625Z,8.67
2018-04-01T19:15:24.765Z,7.10
2018-04-01T19:17:58.593Z,8.67
2018-04-01T19:20:32.404Z,8.50
2018-04-01T19:23:06.113Z,7.43
2018-04-01T19:25:39.842Z,7.50
2018-04-01T19:28:13.769Z,6.47
2018-04-01T19:30:47.459Z,8.67
2018-04-01T19:33:21.203Z,7.70
2018-04-01T19:35:55.791Z,6.30
2018-04-01T19:38:29.588Z,6.17
2018-04-01T19:41:03.239Z,5.37
2018-04-01T19:43:38.346Z,7.60
2018-04-01T19:46:12.199Z,6.80
2018-04-01T19:48:45.859Z,6.03
2018-04-01T19:51:20.306Z,10.48
2018-04-01T19:53:55.193Z,17.80
2018-04-01T19:56:29.691Z,17.00
2018-04-01T19:59:03.539Z,19.10
2018-04-01T20:01:37.341Z,20.30
2018-04-01T20:04:11.216Z,26.93
2018-04-01T20:06:44.899Z,16.90
2018-04-01T20:09:18.579Z,19.37
2018-04-01T20:11:52.356Z,25.10
2018-04-01T20:14:26.274Z,21.50
2018-04-01T20:17:00.072Z,22.97
2018-04-01T20:19:33.838Z,24.70
2018-04-01T20:22:07.439Z,22.67
2018-04-01T20:24:41.958Z,26.30
2018-04-01T20:27:16.455Z,27.27
2018-04-01T20:29:50.145Z,26.27
2018-04-01T20:32:23.985Z,20.83
2018-04-01T20:34:58.598Z,27.23
2018-04-01T20:37:32.390Z,26.80
2018-04-01T20:40:06.958Z,28.20
2018-04-01T20:42:40.741Z,32.30
2018-04-01T20:45:15.250Z,30.40
2018-04-01T20:47:49.044Z,25.80
2018-04-01T20:50:22.804Z,24.70
2018-04-01T20:52:56.555Z,29.37
2018-04-01T20:55:30.425Z,26.13
2018-04-01T20:58:04.179Z,28.40
2018-04-01T21:00:37.932Z,24.30
2018-04-01T21:03:11.769Z,29.43
2018-04-01T21:05:46.332Z,30.57
2018-04-01T21:08:20.815Z,28.37
2018-04-01T21:10:54.579Z,25.53
2018-04-01T21:13:28.402Z,32.03
2018-04-01T21:16:02.129Z,34.50
2018-04-01T21:18:35.878Z,36.77
2018-04-01T23:20:07.834Z,4.40
2018-04-01T23:22:42.241Z,4.07
2018-04-01T23:25:16.155Z,3.73
2018-04-01T23:27:49.795Z,4.73
2018-04-01T23:30:23.492Z,3.40
2018-04-01T23:32:57.277Z,4.55
2018-04-01T23:35:31.222Z,3.83
2018-04-01T23:38:05.972Z,4.30
2018-04-01T23:40:39.629Z,3.67
2018-04-01T23:43:13.440Z,3.87
